sensor_id;sensor_type;location;lat;lon;timestamp;P1;durP1;ratioP1;P2;durP2;ratioP2
71715;SDS011;59568;52.128;5.434;2023-10-19T00:02:18;5.90;;;3.50;;
71715;SDS011;59568;52.128;5.434;2023-10-19T00:04:46;6.90;;;4.63;;
71715;SDS011;59568;52.128;5.434;2023-10-19T00:07:13;5.83;;;4.03;;
71715;SDS011;59568;52.128;5.434;2023-10-19T00:09:42;8.15;;;4.38;;
71715;SDS011;59568;52.128;5.434;2023-10-19T00:12:13;7.88;;;4.88;;
71715;SDS011;59568;52.128;5.434;2023-10-19T00:14:42;7.22;;;4.35;;
71715;SDS011;59568;52.128;5.434;2023-10-19T00:17:09;6.07;;;4.68;;
71715;SDS011;59568;52.128;5.434;2023-10-19T00:19:38;6.73;;;4.67;;
71715;SDS011;59568;52.128;5.434;2023-10-19T00:22:24;9.45;;;4.72;;
71715;SDS011;59568;52.128;5.434;2023-10-19T00:24:51;10.23;;;4.72;;
71715;SDS011;59568;52.128;5.434;2023-10-19T00:27:18;10.32;;;5.53;;
71715;SDS011;59568;52.128;5.434;2023-10-19T00:29:48;10.32;;;4.50;;
71715;SDS011;59568;52.128;5.434;2023-10-19T00:32:16;7.23;;;4.50;;
71715;SDS011;59568;52.128;5.434;2023-10-19T00:34:46;7.78;;;5.32;;
71715;SDS011;59568;52.128;5.434;2023-10-19T00:37:19;9.25;;;5.30;;
71715;SDS011;59568;52.128;5.434;2023-10-19T00:39:54;8.77;;;5.10;;
71715;SDS011;59568;52.128;5.434;2023-10-19T00:42:22;10.60;;;5.40;;
71715;SDS011;59568;52.128;5.434;2023-10-19T00:44:58;6.80;;;4.70;;
71715;SDS011;59568;52.128;5.434;2023-10-19T00:47:31;8.07;;;5.47;;
71715;SDS011;59568;52.128;5.434;2023-10-19T00:50:07;8.25;;;5.00;;
71715;SDS011;59568;52.128;5.434;2023-10-19T00:52:41;8.20;;;5.03;;
71715;SDS011;59568;52.128;5.434;2023-10-19T00:55:16;7.05;;;4.85;;
71715;SDS011;59568;52.128;5.434;2023-10-19T00:57:47;8.30;;;5.10;;
71715;SDS011;59568;52.128;5.434;2023-10-19T01:00:16;11.00;;;6.07;;
71715;SDS011;59568;52.128;5.434;2023-10-19T01:02:57;8.13;;;4.97;;
71715;SDS011;59568;52.128;5.434;2023-10-19T01:05:27;8.50;;;4.95;;
71715;SDS011;59568;52.128;5.434;2023-10-19T01:08:03;7.55;;;5.40;;
71715;SDS011;59568;52.128;5.434;2023-10-19T01:10:51;9.43;;;5.57;;
71715;SDS011;59568;52.128;5.434;2023-10-19T01:13:19;8.70;;;5.00;;
71715;SDS011;59568;52.128;5.434;2023-10-19T01:16:00;8.73;;;5.53;;
71715;SDS011;59568;52.128;5.434;2023-10-19T01:18:27;10.88;;;5.78;;
71715;SDS011;59568;52.128;5.434;2023-10-19T01:20:56;8.25;;;5.57;;
71715;SDS011;59568;52.128;5.434;2023-10-19T01:23:22;12.93;;;5.73;;
71715;SDS011;59568;52.128;5.434;2023-10-19T01:25:58;10.07;;;6.00;;
71715;SDS011;59568;52.128;5.434;2023-10-19T01:28:33;8.77;;;5.82;;
71715;SDS011;59568;52.128;5.434;2023-10-19T01:31:08;8.88;;;6.10;;
71715;SDS011;59568;52.128;5.434;2023-10-19T01:33:55;13.43;;;6.50;;
71715;SDS011;59568;52.128;5.434;2023-10-19T01:36:27;9.37;;;5.83;;
71715;SDS011;59568;52.128;5.434;2023-10-19T01:38:55;10.32;;;6.20;;
71715;SDS011;59568;52.128;5.434;2023-10-19T01:41:27;9.63;;;6.10;;
71715;SDS011;59568;52.128;5.434;2023-10-19T01:43:57;10.80;;;6.13;;
71715;SDS011;59568;52.128;5.434;2023-10-19T01:46:31;10.35;;;5.90;;
71715;SDS011;59568;52.128;5.434;2023-10-19T01:49:03;9.17;;;5.67;;
71715;SDS011;59568;52.128;5.434;2023-10-19T01:51:32;11.05;;;6.32;;
71715;SDS011;59568;52.128;5.434;2023-10-19T01:54:07;10.55;;;6.95;;
71715;SDS011;59568;52.128;5.434;2023-10-19T01:56:35;10.10;;;5.85;;
71715;SDS011;59568;52.128;5.434;2023-10-19T01:59:04;12.57;;;7.47;;
71715;SDS011;59568;52.128;5.434;2023-10-19T02:01:32;10.30;;;6.47;;
71715;SDS011;59568;52.128;5.434;2023-10-19T02:04:01;10.52;;;6.32;;
71715;SDS011;59568;52.128;5.434;2023-10-19T02:06:31;10.57;;;7.07;;
71715;SDS011;59568;52.128;5.434;2023-10-19T02:09:05;8.02;;;5.80;;
71715;SDS011;59568;52.128;5.434;2023-10-19T02:11:49;10.00;;;6.50;;
71715;SDS011;59568;52.128;5.434;2023-10-19T02:14:19;10.73;;;6.57;;
71715;SDS011;59568;52.128;5.434;2023-10-19T02:16:50;8.70;;;5.90;;
71715;SDS011;59568;52.128;5.434;2023-10-19T02:19:27;10.77;;;6.40;;
71715;SDS011;59568;52.128;5.434;2023-10-19T02:21:59;11.35;;;6.18;;
71715;SDS011;59568;52.128;5.434;2023-10-19T02:24:38;10.95;;;6.22;;
71715;SDS011;59568;52.128;5.434;2023-10-19T02:27:08;12.10;;;5.90;;
71715;SDS011;59568;52.128;5.434;2023-10-19T02:29:44;9.60;;;5.93;;
71715;SDS011;59568;52.128;5.434;2023-10-19T02:32:13;12.30;;;5.97;;
71715;SDS011;59568;52.128;5.434;2023-10-19T02:34:40;10.05;;;5.80;;
71715;SDS011;59568;52.128;5.434;2023-10-19T02:37:07;7.53;;;4.85;;
71715;SDS011;59568;52.128;5.434;2023-10-19T02:39:34;11.07;;;5.63;;
71715;SDS011;59568;52.128;5.434;2023-10-19T02:42:01;9.23;;;5.65;;
71715;SDS011;59568;52.128;5.434;2023-10-19T02:44:29;9.70;;;5.57;;
71715;SDS011;59568;52.128;5.434;2023-10-19T02:46:57;8.60;;;4.68;;
71715;SDS011;59568;52.128;5.434;2023-10-19T02:49:27;7.38;;;5.38;;
71715;SDS011;59568;52.128;5.434;2023-10-19T02:51:56;10.47;;;5.20;;
71715;SDS011;59568;52.128;5.434;2023-10-19T02:54:30;8.07;;;5.07;;
71715;SDS011;59568;52.128;5.434;2023-10-19T02:57:00;8.50;;;5.28;;
71715;SDS011;59568;52.128;5.434;2023-10-19T02:59:29;7.63;;;5.00;;
71715;SDS011;59568;52.128;5.434;2023-10-19T03:01:56;7.70;;;4.78;;
71715;SDS011;59568;52.128;5.434;2023-10-19T03:04:33;6.57;;;4.20;;
71715;SDS011;59568;52.128;5.434;2023-10-19T03:07:03;7.78;;;5.30;;
71715;SDS011;59568;52.128;5.434;2023-10-19T03:09:30;7.13;;;4.97;;
71715;SDS011;59568;52.128;5.434;2023-10-19T03:12:02;8.48;;;4.55;;
71715;SDS011;59568;52.128;5.434;2023-10-19T03:14:31;7.30;;;5.18;;
71715;SDS011;59568;52.128;5.434;2023-10-19T03:16:59;8.27;;;5.27;;
71715;SDS011;59568;52.128;5.434;2023-10-19T03:19:27;9.88;;;4.75;;
71715;SDS011;59568;52.128;5.434;2023-10-19T03:21:54;8.35;;;3.95;;
71715;SDS011;59568;52.128;5.434;2023-10-19T03:24:22;10.13;;;4.35;;
71715;SDS011;59568;52.128;5.434;2023-10-19T03:26:50;9.93;;;4.80;;
71715;SDS011;59568;52.128;5.434;2023-10-19T03:29:17;6.43;;;4.20;;
71715;SDS011;59568;52.128;5.434;2023-10-19T03:31:58;9.85;;;4.55;;
71715;SDS011;59568;52.128;5.434;2023-10-19T03:34:28;7.80;;;4.60;;
71715;SDS011;59568;52.128;5.434;2023-10-19T03:37:01;7.13;;;4.55;;
71715;SDS011;59568;52.128;5.434;2023-10-19T03:39:33;7.18;;;4.10;;
71715;SDS011;59568;52.128;5.434;2023-10-19T03:42:00;6.23;;;4.00;;
71715;SDS011;59568;52.128;5.434;2023-10-19T03:44:27;7.65;;;4.07;;
71715;SDS011;59568;52.128;5.434;2023-10-19T03:47:06;7.88;;;4.20;;
71715;SDS011;59568;52.128;5.434;2023-10-19T03:49:38;8.23;;;4.10;;
71715;SDS011;59568;52.128;5.434;2023-10-19T03:52:06;10.43;;;4.20;;
71715;SDS011;59568;52.128;5.434;2023-10-19T03:54:37;6.87;;;4.27;;
71715;SDS011;59568;52.128;5.434;2023-10-19T03:57:12;9.90;;;4.15;;
71715;SDS011;59568;52.128;5.434;2023-10-19T03:59:46;6.43;;;3.53;;
71715;SDS011;59568;52.128;5.434;2023-10-19T04:02:19;5.70;;;3.50;;
71715;SDS011;59568;52.128;5.434;2023-10-19T04:04:48;6.10;;;3.80;;
71715;SDS011;59568;52.128;5.434;2023-10-19T04:07:15;6.17;;;3.40;;
71715;SDS011;59568;52.128;5.434;2023-10-19T04:09:49;6.45;;;2.83;;
71715;SDS011;59568;52.128;5.434;2023-10-19T04:12:35;6.88;;;3.42;;
71715;SDS011;59568;52.128;5.434;2023-10-19T04:15:07;5.68;;;3.03;;
71715;SDS011;59568;52.128;5.434;2023-10-19T04:17:47;3.83;;;2.45;;
71715;SDS011;59568;52.128;5.434;2023-10-19T04:20:19;4.53;;;2.90;;
71715;SDS011;59568;52.128;5.434;2023-10-19T04:22:46;4.78;;;2.30;;
71715;SDS011;59568;52.128;5.434;2023-10-19T04:25:15;5.82;;;2.28;;
71715;SDS011;59568;52.128;5.434;2023-10-19T04:27:42;5.72;;;2.67;;
71715;SDS011;59568;52.128;5.434;2023-10-19T04:30:10;7.75;;;2.83;;
71715;SDS011;59568;52.128;5.434;2023-10-19T04:32:53;5.13;;;2.13;;
71715;SDS011;59568;52.128;5.434;2023-10-19T04:35:24;3.47;;;1.70;;
71715;SDS011;59568;52.128;5.434;2023-10-19T04:37:56;3.40;;;2.10;;
71715;SDS011;59568;52.128;5.434;2023-10-19T04:40:23;4.63;;;1.48;;
71715;SDS011;59568;52.128;5.434;2023-10-19T04:42:51;3.47;;;1.48;;
71715;SDS011;59568;52.128;5.434;2023-10-19T04:45:18;2.73;;;1.60;;
71715;SDS011;59568;52.128;5.434;2023-10-19T04:47:45;6.93;;;2.10;;
71715;SDS011;59568;52.128;5.434;2023-10-19T04:50:13;2.08;;;1.40;;
71715;SDS011;59568;52.128;5.434;2023-10-19T04:52:40;2.72;;;1.50;;
71715;SDS011;59568;52.128;5.434;2023-10-19T04:55:07;3.53;;;1.33;;
71715;SDS011;59568;52.128;5.434;2023-10-19T04:57:34;2.47;;;1.13;;
71715;SDS011;59568;52.128;5.434;2023-10-19T05:00:01;3.95;;;0.98;;
71715;SDS011;59568;52.128;5.434;2023-10-19T05:02:30;1.98;;;1.08;;
71715;SDS011;59568;52.128;5.434;2023-10-19T05:04:57;3.10;;;1.33;;
71715;SDS011;59568;52.128;5.434;2023-10-19T05:07:24;1.50;;;1.00;;
71715;SDS011;59568;52.128;5.434;2023-10-19T05:09:51;1.93;;;0.80;;
71715;SDS011;59568;52.128;5.434;2023-10-19T05:12:20;3.05;;;1.20;;
71715;SDS011;59568;52.128;5.434;2023-10-19T05:14:48;3.60;;;1.13;;
71715;SDS011;59568;52.128;5.434;2023-10-19T05:17:14;2.70;;;0.80;;
71715;SDS011;59568;52.128;5.434;2023-10-19T05:19:41;4.18;;;0.95;;
71715;SDS011;59568;52.128;5.434;2023-10-19T05:22:09;3.63;;;0.63;;
71715;SDS011;59568;52.128;5.434;2023-10-19T05:24:35;2.35;;;0.68;;
71715;SDS011;59568;52.128;5.434;2023-10-19T05:27:03;2.03;;;0.82;;
71715;SDS011;59568;52.128;5.434;2023-10-19T05:29:31;5.07;;;0.60;;
71715;SDS011;59568;52.128;5.434;2023-10-19T05:32:02;3.03;;;0.70;;
71715;SDS011;59568;52.128;5.434;2023-10-19T05:34:30;1.10;;;0.53;;
71715;SDS011;59568;52.128;5.434;2023-10-19T05:36:59;1.33;;;0.70;;
71715;SDS011;59568;52.128;5.434;2023-10-19T05:39:29;2.45;;;0.70;;
71715;SDS011;59568;52.128;5.434;2023-10-19T05:41:58;1.52;;;0.57;;
71715;SDS011;59568;52.128;5.434;2023-10-19T05:44:28;1.70;;;0.68;;
71715;SDS011;59568;52.128;5.434;2023-10-19T05:46:57;1.33;;;0.40;;
71715;SDS011;59568;52.128;5.434;2023-10-19T05:49:28;3.13;;;0.60;;
71715;SDS011;59568;52.128;5.434;2023-10-19T05:51:56;5.40;;;0.60;;
71715;SDS011;59568;52.128;5.434;2023-10-19T05:54:23;3.17;;;0.70;;
71715;SDS011;59568;52.128;5.434;2023-10-19T05:56:51;5.60;;;0.60;;
71715;SDS011;59568;52.128;5.434;2023-10-19T05:59:19;2.67;;;0.53;;
71715;SDS011;59568;52.128;5.434;2023-10-19T06:01:46;1.83;;;0.45;;
71715;SDS011;59568;52.128;5.434;2023-10-19T06:04:14;2.20;;;0.60;;
71715;SDS011;59568;52.128;5.434;2023-10-19T06:06:46;4.75;;;0.55;;
71715;SDS011;59568;52.128;5.434;2023-10-19T06:09:15;2.05;;;0.60;;
71715;SDS011;59568;52.128;5.434;2023-10-19T06:11:44;3.13;;;0.40;;
71715;SDS011;59568;52.128;5.434;2023-10-19T06:14:12;0.98;;;0.50;;
71715;SDS011;59568;52.128;5.434;2023-10-19T06:16:39;1.27;;;0.50;;
71715;SDS011;59568;52.128;5.434;2023-10-19T06:19:06;1.63;;;0.70;;
71715;SDS011;59568;52.128;5.434;2023-10-19T06:21:33;2.53;;;0.85;;
71715;SDS011;59568;52.128;5.434;2023-10-19T06:24:00;1.00;;;0.37;;
71715;SDS011;59568;52.128;5.434;2023-10-19T06:26:29;3.25;;;0.63;;
71715;SDS011;59568;52.128;5.434;2023-10-19T06:28:56;2.63;;;0.73;;
71715;SDS011;59568;52.128;5.434;2023-10-19T06:31:26;3.08;;;1.05;;
71715;SDS011;59568;52.128;5.434;2023-10-19T06:33:56;3.47;;;0.70;;
71715;SDS011;59568;52.128;5.434;2023-10-19T06:36:24;3.47;;;0.90;;
71715;SDS011;59568;52.128;5.434;2023-10-19T06:38:51;2.88;;;0.70;;
71715;SDS011;59568;52.128;5.434;2023-10-19T06:41:21;4.53;;;0.60;;
71715;SDS011;59568;52.128;5.434;2023-10-19T06:43:49;2.70;;;0.90;;
71715;SDS011;59568;52.128;5.434;2023-10-19T06:46:17;4.18;;;0.80;;
71715;SDS011;59568;52.128;5.434;2023-10-19T06:48:44;2.43;;;0.87;;
71715;SDS011;59568;52.128;5.434;2023-10-19T06:51:11;2.53;;;0.77;;
71715;SDS011;59568;52.128;5.434;2023-10-19T06:53:38;2.25;;;0.70;;
71715;SDS011;59568;52.128;5.434;2023-10-19T06:56:05;1.73;;;0.45;;
71715;SDS011;59568;52.128;5.434;2023-10-19T06:58:33;2.75;;;0.98;;
71715;SDS011;59568;52.128;5.434;2023-10-19T07:01:01;1.30;;;0.67;;
71715;SDS011;59568;52.128;5.434;2023-10-19T07:03:34;4.40;;;0.93;;
71715;SDS011;59568;52.128;5.434;2023-10-19T07:06:02;1.73;;;0.88;;
71715;SDS011;59568;52.128;5.434;2023-10-19T07:08:35;2.40;;;0.90;;
71715;SDS011;59568;52.128;5.434;2023-10-19T07:11:02;2.17;;;0.73;;
71715;SDS011;59568;52.128;5.434;2023-10-19T07:13:30;3.10;;;0.70;;
71715;SDS011;59568;52.128;5.434;2023-10-19T07:16:00;2.78;;;1.10;;
71715;SDS011;59568;52.128;5.434;2023-10-19T07:18:27;2.13;;;0.70;;
71715;SDS011;59568;52.128;5.434;2023-10-19T07:20:55;5.07;;;0.93;;
71715;SDS011;59568;52.128;5.434;2023-10-19T07:23:30;2.08;;;1.13;;
71715;SDS011;59568;52.128;5.434;2023-10-19T07:25:58;0.90;;;0.50;;
71715;SDS011;59568;52.128;5.434;2023-10-19T07:28:28;2.03;;;0.82;;
71715;SDS011;59568;52.128;5.434;2023-10-19T07:30:56;2.42;;;0.88;;
71715;SDS011;59568;52.128;5.434;2023-10-19T07:33:26;5.63;;;0.98;;
71715;SDS011;59568;52.128;5.434;2023-10-19T07:35:54;3.25;;;0.80;;
71715;SDS011;59568;52.128;5.434;2023-10-19T07:38:22;4.37;;;0.90;;
71715;SDS011;59568;52.128;5.434;2023-10-19T07:40:50;2.90;;;0.82;;
71715;SDS011;59568;52.128;5.434;2023-10-19T07:43:20;2.63;;;1.13;;
71715;SDS011;59568;52.128;5.434;2023-10-19T07:45:49;3.70;;;0.90;;
71715;SDS011;59568;52.128;5.434;2023-10-19T07:48:17;3.38;;;0.80;;
71715;SDS011;59568;52.128;5.434;2023-10-19T07:50:44;7.10;;;0.80;;
71715;SDS011;59568;52.128;5.434;2023-10-19T07:53:11;1.67;;;0.73;;
71715;SDS011;59568;52.128;5.434;2023-10-19T07:55:38;4.13;;;0.82;;
71715;SDS011;59568;52.128;5.434;2023-10-19T07:58:06;3.95;;;0.70;;
71715;SDS011;59568;52.128;5.434;2023-10-19T08:00:33;1.90;;;0.90;;
71715;SDS011;59568;52.128;5.434;2023-10-19T08:03:01;5.23;;;0.90;;
71715;SDS011;59568;52.128;5.434;2023-10-19T08:05:31;3.63;;;1.00;;
71715;SDS011;59568;52.128;5.434;2023-10-19T08:08:01;6.05;;;0.98;;
71715;SDS011;59568;52.128;5.434;2023-10-19T08:10:31;3.30;;;0.85;;
71715;SDS011;59568;52.128;5.434;2023-10-19T08:12:58;5.30;;;0.73;;
71715;SDS011;59568;52.128;5.434;2023-10-19T08:15:26;1.40;;;0.80;;
71715;SDS011;59568;52.128;5.434;2023-10-19T08:17:55;3.65;;;0.70;;
71715;SDS011;59568;52.128;5.434;2023-10-19T08:20:22;3.60;;;0.75;;
71715;SDS011;59568;52.128;5.434;2023-10-19T08:22:52;5.18;;;1.23;;
71715;SDS011;59568;52.128;5.434;2023-10-19T08:25:25;4.05;;;1.17;;
71715;SDS011;59568;52.128;5.434;2023-10-19T08:28:15;5.27;;;0.90;;
71715;SDS011;59568;52.128;5.434;2023-10-19T08:30:42;3.05;;;0.90;;
71715;SDS011;59568;52.128;5.434;2023-10-19T08:33:11;3.28;;;0.70;;
71715;SDS011;59568;52.128;5.434;2023-10-19T08:35:40;4.57;;;0.70;;
71715;SDS011;59568;52.128;5.434;2023-10-19T08:38:08;2.70;;;1.20;;
71715;SDS011;59568;52.128;5.434;2023-10-19T08:40:38;5.30;;;0.60;;
71715;SDS011;59568;52.128;5.434;2023-10-19T08:43:06;3.55;;;1.00;;
71715;SDS011;59568;52.128;5.434;2023-10-19T08:45:40;6.18;;;1.23;;
71715;SDS011;59568;52.128;5.434;2023-10-19T08:48:08;4.50;;;0.98;;
71715;SDS011;59568;52.128;5.434;2023-10-19T08:50:36;4.32;;;0.93;;
71715;SDS011;59568;52.128;5.434;2023-10-19T08:53:08;1.43;;;0.80;;
71715;SDS011;59568;52.128;5.434;2023-10-19T08:55:41;2.35;;;0.90;;
71715;SDS011;59568;52.128;5.434;2023-10-19T08:58:16;5.30;;;1.13;;
71715;SDS011;59568;52.128;5.434;2023-10-19T09:00:46;2.45;;;0.95;;
71715;SDS011;59568;52.128;5.434;2023-10-19T09:03:24;4.63;;;0.98;;
71715;SDS011;59568;52.128;5.434;2023-10-19T09:05:53;5.57;;;0.87;;
71715;SDS011;59568;52.128;5.434;2023-10-19T09:08:21;1.95;;;0.85;;
71715;SDS011;59568;52.128;5.434;2023-10-19T09:10:50;5.35;;;0.95;;
71715;SDS011;59568;52.128;5.434;2023-10-19T09:13:21;3.90;;;1.00;;
71715;SDS011;59568;52.128;5.434;2023-10-19T09:15:51;4.38;;;1.15;;
71715;SDS011;59568;52.128;5.434;2023-10-19T09:18:24;5.23;;;1.10;;
71715;SDS011;59568;52.128;5.434;2023-10-19T09:20:55;4.03;;;1.20;;
71715;SDS011;59568;52.128;5.434;2023-10-19T09:23:29;4.40;;;1.00;;
71715;SDS011;59568;52.128;5.434;2023-10-19T09:25:58;2.78;;;1.25;;
71715;SDS011;59568;52.128;5.434;2023-10-19T09:28:34;4.85;;;1.35;;
71715;SDS011;59568;52.128;5.434;2023-10-19T09:31:03;5.40;;;1.07;;
71715;SDS011;59568;52.128;5.434;2023-10-19T09:33:32;4.57;;;1.00;;
71715;SDS011;59568;52.128;5.434;2023-10-19T09:36:03;3.97;;;1.08;;
71715;SDS011;59568;52.128;5.434;2023-10-19T09:41:11;2.80;;;1.00;;
71715;SDS011;59568;52.128;5.434;2023-10-19T09:43:41;6.00;;;1.20;;
71715;SDS011;59568;52.128;5.434;2023-10-19T09:46:11;4.45;;;0.95;;
71715;SDS011;59568;52.128;5.434;2023-10-19T09:48:43;4.55;;;1.10;;
71715;SDS011;59568;52.128;5.434;2023-10-19T09:51:12;4.60;;;0.90;;
71715;SDS011;59568;52.128;5.434;2023-10-19T09:53:48;2.20;;;0.85;;
71715;SDS011;59568;52.128;5.434;2023-10-19T09:56:38;5.97;;;1.30;;
71715;SDS011;59568;52.128;5.434;2023-10-19T09:59:13;6.45;;;1.45;;
71715;SDS011;59568;52.128;5.434;2023-10-19T10:02:06;5.22;;;1.55;;
71715;SDS011;59568;52.128;5.434;2023-10-19T10:04:35;5.85;;;1.48;;
71715;SDS011;59568;52.128;5.434;2023-10-19T10:07:02;3.92;;;1.35;;
71715;SDS011;59568;52.128;5.434;2023-10-19T10:09:34;6.70;;;1.37;;
71715;SDS011;59568;52.128;5.434;2023-10-19T10:12:19;9.20;;;1.77;;
71715;SDS011;59568;52.128;5.434;2023-10-19T10:15:00;7.00;;;1.85;;
71715;SDS011;59568;52.128;5.434;2023-10-19T10:17:32;7.95;;;1.30;;
71715;SDS011;59568;52.128;5.434;2023-10-19T10:20:35;5.65;;;1.30;;
71715;SDS011;59568;52.128;5.434;2023-10-19T10:25:49;3.88;;;1.38;;
71715;SDS011;59568;52.128;5.434;2023-10-19T10:28:19;3.33;;;1.33;;
71715;SDS011;59568;52.128;5.434;2023-10-19T10:33:45;3.05;;;1.13;;
71715;SDS011;59568;52.128;5.434;2023-10-19T10:36:15;4.70;;;1.23;;
71715;SDS011;59568;52.128;5.434;2023-10-19T10:38:44;5.32;;;1.38;;
71715;SDS011;59568;52.128;5.434;2023-10-19T10:41:12;3.33;;;1.35;;
71715;SDS011;59568;52.128;5.434;2023-10-19T10:43:47;4.90;;;1.42;;
71715;SDS011;59568;52.128;5.434;2023-10-19T10:46:16;6.88;;;1.40;;
71715;SDS011;59568;52.128;5.434;2023-10-19T10:48:43;6.43;;;1.30;;
71715;SDS011;59568;52.128;5.434;2023-10-19T10:51:23;7.97;;;1.20;;
71715;SDS011;59568;52.128;5.434;2023-10-19T10:53:54;5.90;;;1.38;;
71715;SDS011;59568;52.128;5.434;2023-10-19T10:56:22;5.80;;;1.50;;
71715;SDS011;59568;52.128;5.434;2023-10-19T10:58:50;6.95;;;1.42;;
71715;SDS011;59568;52.128;5.434;2023-10-19T11:01:30;3.67;;;1.27;;
71715;SDS011;59568;52.128;5.434;2023-10-19T11:04:06;5.38;;;1.08;;
71715;SDS011;59568;52.128;5.434;2023-10-19T11:06:53;1.60;;;1.00;;
71715;SDS011;59568;52.128;5.434;2023-10-19T11:09:24;2.78;;;1.05;;
71715;SDS011;59568;52.128;5.434;2023-10-19T11:11:51;9.57;;;1.50;;
71715;SDS011;59568;52.128;5.434;2023-10-19T11:14:21;5.27;;;1.37;;
71715;SDS011;59568;52.128;5.434;2023-10-19T11:16:52;7.32;;;1.42;;
71715;SDS011;59568;52.128;5.434;2023-10-19T11:19:20;4.18;;;1.08;;
71715;SDS011;59568;52.128;5.434;2023-10-19T11:21:54;6.18;;;1.00;;
71715;SDS011;59568;52.128;5.434;2023-10-19T11:24:26;5.20;;;1.30;;
71715;SDS011;59568;52.128;5.434;2023-10-19T11:26:55;8.47;;;1.50;;
71715;SDS011;59568;52.128;5.434;2023-10-19T11:29:22;5.80;;;1.35;;
71715;SDS011;59568;52.128;5.434;2023-10-19T11:32:01;5.78;;;1.23;;
71715;SDS011;59568;52.128;5.434;2023-10-19T11:34:29;4.53;;;0.88;;
71715;SDS011;59568;52.128;5.434;2023-10-19T11:36:57;3.08;;;1.23;;
71715;SDS011;59568;52.128;5.434;2023-10-19T11:39:26;7.03;;;1.20;;
71715;SDS011;59568;52.128;5.434;2023-10-19T11:41:54;3.50;;;0.93;;
71715;SDS011;59568;52.128;5.434;2023-10-19T11:44:22;6.07;;;0.90;;
71715;SDS011;59568;52.128;5.434;2023-10-19T11:46:49;5.88;;;0.80;;
71715;SDS011;59568;52.128;5.434;2023-10-19T11:49:16;8.18;;;1.20;;
71715;SDS011;59568;52.128;5.434;2023-10-19T11:51:43;6.60;;;0.80;;
71715;SDS011;59568;52.128;5.434;2023-10-19T11:54:10;6.90;;;1.25;;
71715;SDS011;59568;52.128;5.434;2023-10-19T11:56:39;5.03;;;0.90;;
71715;SDS011;59568;52.128;5.434;2023-10-19T11:59:06;5.82;;;0.65;;
71715;SDS011;59568;52.128;5.434;2023-10-19T12:01:34;3.50;;;0.82;;
71715;SDS011;59568;52.128;5.434;2023-10-19T12:04:01;2.90;;;0.60;;
71715;SDS011;59568;52.128;5.434;2023-10-19T12:06:28;4.60;;;0.85;;
71715;SDS011;59568;52.128;5.434;2023-10-19T12:08:55;3.42;;;0.85;;
71715;SDS011;59568;52.128;5.434;2023-10-19T12:11:25;5.15;;;0.60;;
71715;SDS011;59568;52.128;5.434;2023-10-19T12:13:52;4.47;;;1.00;;
71715;SDS011;59568;52.128;5.434;2023-10-19T12:16:20;3.80;;;0.93;;
71715;SDS011;59568;52.128;5.434;2023-10-19T12:18:50;5.93;;;1.10;;
71715;SDS011;59568;52.128;5.434;2023-10-19T12:21:18;7.65;;;1.05;;
71715;SDS011;59568;52.128;5.434;2023-10-19T12:23:54;5.43;;;0.90;;
71715;SDS011;59568;52.128;5.434;2023-10-19T12:26:23;5.25;;;0.98;;
71715;SDS011;59568;52.128;5.434;2023-10-19T12:28:51;8.57;;;1.23;;
71715;SDS011;59568;52.128;5.434;2023-10-19T12:31:20;4.45;;;0.60;;
71715;SDS011;59568;52.128;5.434;2023-10-19T12:33:49;4.00;;;1.00;;
71715;SDS011;59568;52.128;5.434;2023-10-19T12:36:16;3.78;;;0.70;;
71715;SDS011;59568;52.128;5.434;2023-10-19T12:38:55;3.78;;;0.75;;
71715;SDS011;59568;52.128;5.434;2023-10-19T12:41:22;5.70;;;0.63;;
71715;SDS011;59568;52.128;5.434;2023-10-19T12:43:50;5.20;;;0.77;;
71715;SDS011;59568;52.128;5.434;2023-10-19T12:46:34;6.35;;;1.30;;
71715;SDS011;59568;52.128;5.434;2023-10-19T12:49:04;4.82;;;0.70;;
71715;SDS011;59568;52.128;5.434;2023-10-19T12:51:35;5.32;;;1.50;;
71715;SDS011;59568;52.128;5.434;2023-10-19T12:54:02;6.80;;;0.80;;
71715;SDS011;59568;52.128;5.434;2023-10-19T12:56:30;7.78;;;1.10;;
71715;SDS011;59568;52.128;5.434;2023-10-19T12:59:00;4.65;;;1.17;;
71715;SDS011;59568;52.128;5.434;2023-10-19T13:01:27;4.00;;;0.63;;
71715;SDS011;59568;52.128;5.434;2023-10-19T13:03:55;5.40;;;0.90;;
71715;SDS011;59568;52.128;5.434;2023-10-19T13:06:22;4.43;;;1.30;;
71715;SDS011;59568;52.128;5.434;2023-10-19T13:08:51;3.08;;;0.80;;
71715;SDS011;59568;52.128;5.434;2023-10-19T13:11:18;6.20;;;0.93;;
71715;SDS011;59568;52.128;5.434;2023-10-19T13:13:46;3.78;;;1.10;;
71715;SDS011;59568;52.128;5.434;2023-10-19T13:16:14;4.60;;;1.40;;
71715;SDS011;59568;52.128;5.434;2023-10-19T13:18:42;7.27;;;1.13;;
71715;SDS011;59568;52.128;5.434;2023-10-19T13:21:10;11.85;;;1.50;;
71715;SDS011;59568;52.128;5.434;2023-10-19T13:23:42;3.45;;;0.90;;
71715;SDS011;59568;52.128;5.434;2023-10-19T13:26:10;3.70;;;1.15;;
71715;SDS011;59568;52.128;5.434;2023-10-19T13:28:44;5.93;;;1.10;;
71715;SDS011;59568;52.128;5.434;2023-10-19T13:31:12;7.47;;;1.43;;
71715;SDS011;59568;52.128;5.434;2023-10-19T13:33:42;3.50;;;1.10;;
71715;SDS011;59568;52.128;5.434;2023-10-19T13:36:10;4.85;;;1.42;;
71715;SDS011;59568;52.128;5.434;2023-10-19T13:38:40;6.35;;;1.55;;
71715;SDS011;59568;52.128;5.434;2023-10-19T13:41:08;8.20;;;1.40;;
71715;SDS011;59568;52.128;5.434;2023-10-19T13:43:41;5.67;;;1.40;;
71715;SDS011;59568;52.128;5.434;2023-10-19T13:46:11;6.68;;;1.80;;
71715;SDS011;59568;52.128;5.434;2023-10-19T13:48:38;8.05;;;1.70;;
71715;SDS011;59568;52.128;5.434;2023-10-19T13:51:06;4.93;;;1.50;;
71715;SDS011;59568;52.128;5.434;2023-10-19T13:53:41;6.97;;;1.55;;
71715;SDS011;59568;52.128;5.434;2023-10-19T13:56:09;9.70;;;2.10;;
71715;SDS011;59568;52.128;5.434;2023-10-19T13:58:36;7.10;;;1.38;;
71715;SDS011;59568;52.128;5.434;2023-10-19T14:01:07;5.93;;;1.33;;
71715;SDS011;59568;52.128;5.434;2023-10-19T14:03:36;4.78;;;1.35;;
71715;SDS011;59568;52.128;5.434;2023-10-19T14:06:04;7.88;;;1.20;;
71715;SDS011;59568;52.128;5.434;2023-10-19T14:08:32;3.00;;;0.90;;
71715;SDS011;59568;52.128;5.434;2023-10-19T14:11:02;5.20;;;1.00;;
71715;SDS011;59568;52.128;5.434;2023-10-19T14:13:30;7.13;;;0.95;;
71715;SDS011;59568;52.128;5.434;2023-10-19T14:15:58;4.70;;;1.20;;
71715;SDS011;59568;52.128;5.434;2023-10-19T14:18:25;4.35;;;0.80;;
71715;SDS011;59568;52.128;5.434;2023-10-19T14:20:54;3.97;;;1.20;;
71715;SDS011;59568;52.128;5.434;2023-10-19T14:23:21;5.40;;;1.40;;
71715;SDS011;59568;52.128;5.434;2023-10-19T14:25:51;6.25;;;1.23;;
71715;SDS011;59568;52.128;5.434;2023-10-19T14:28:18;5.25;;;0.95;;
71715;SDS011;59568;52.128;5.434;2023-10-19T14:30:45;4.88;;;1.20;;
71715;SDS011;59568;52.128;5.434;2023-10-19T14:33:12;12.57;;;1.60;;
71715;SDS011;59568;52.128;5.434;2023-10-19T14:35:39;3.85;;;0.85;;
71715;SDS011;59568;52.128;5.434;2023-10-19T14:38:09;3.05;;;0.98;;
71715;SDS011;59568;52.128;5.434;2023-10-19T14:40:38;8.63;;;1.55;;
71715;SDS011;59568;52.128;5.434;2023-10-19T14:43:10;6.07;;;1.33;;
71715;SDS011;59568;52.128;5.434;2023-10-19T14:45:39;6.20;;;1.40;;
71715;SDS011;59568;52.128;5.434;2023-10-19T14:48:07;5.28;;;1.10;;
71715;SDS011;59568;52.128;5.434;2023-10-19T14:50:37;5.47;;;1.23;;
71715;SDS011;59568;52.128;5.434;2023-10-19T14:53:04;7.65;;;1.58;;
71715;SDS011;59568;52.128;5.434;2023-10-19T14:55:31;11.27;;;1.75;;
71715;SDS011;59568;52.128;5.434;2023-10-19T14:57:58;4.87;;;1.77;;
71715;SDS011;59568;52.128;5.434;2023-10-19T15:00:26;4.72;;;1.38;;
71715;SDS011;59568;52.128;5.434;2023-10-19T15:03:02;4.53;;;1.02;;
71715;SDS011;59568;52.128;5.434;2023-10-19T15:05:34;5.38;;;1.92;;
71715;SDS011;59568;52.128;5.434;2023-10-19T15:08:03;3.95;;;1.50;;
71715;SDS011;59568;52.128;5.434;2023-10-19T15:10:31;11.33;;;1.57;;
71715;SDS011;59568;52.128;5.434;2023-10-19T15:12:59;6.10;;;1.50;;